Time;durP1;ratioP1;P1;durP2;ratioP2;P2;SDS_P1;SDS_P2;PMS_P1;PMS_P2;Temp;Humidity;BMP_temperature;BMP_pressure;BME280_temperature;BME280_humidity;BME280_pressure;Samples;Min_cycle;Max_cycle;Signal;HPM_P1;HPM_P2
2022/04/04 00:02:14;;;;;;;2.30;1.97;;;2.60;99.90;;;;;;4992714;28;20177;-67
2022/04/04 00:04:40;;;;;;;1.70;1.60;;;2.60;99.90;;;;;;4992691;28;20200;-66
2022/04/04 00:07:06;;;;;;;2.90;1.60;;;2.60;99.90;;;;;;4993119;28;20432;-67
2022/04/04 00:09:31;;;;;;;2.23;2.03;;;2.60;99.90;;;;;;4993203;28;20404;-67
2022/04/04 00:11:57;;;;;;;2.40;2.30;;;2.60;99.90;;;;;;4993053;28;20654;-67
2022/04/04 00:14:22;;;;;;;2.67;2.10;;;2.60;99.90;;;;;;4992873;28;20312;-67
2022/04/04 00:16:48;;;;;;;8.17;3.20;;;2.60;99.90;;;;;;4993139;28;20504;-67
2022/04/04 00:19:14;;;;;;;2.97;2.13;;;2.60;99.90;;;;;;4993384;28;20177;-68
2022/04/04 00:21:41;;;;;;;2.10;1.70;;;2.60;99.90;;;;;;4993227;28;20692;-66
2022/04/04 00:24:07;;;;;;;1.47;1.37;;;2.60;99.90;;;;;;4993746;28;20538;-67
2022/04/04 00:26:33;;;;;;;2.40;2.00;;;2.50;99.90;;;;;;4993417;28;20456;-67
2022/04/04 00:28:58;;;;;;;1.73;1.63;;;2.60;99.90;;;;;;4994046;28;20420;-67
2022/04/04 00:31:24;;;;;;;2.17;1.63;;;2.60;99.90;;;;;;4992420;28;20184;-67
2022/04/04 00:33:49;;;;;;;3.03;2.57;;;2.70;99.90;;;;;;4992228;28;20180;-66
2022/04/04 00:36:15;;;;;;;2.27;2.07;;;2.60;99.90;;;;;;4992310;28;20220;-67
2022/04/04 00:38:40;;;;;;;2.63;1.67;;;2.60;99.90;;;;;;4992637;28;20181;-66
2022/04/04 00:41:12;;;;;;;1.40;1.30;;;2.60;99.90;;;;;;4992999;28;20416;-67
2022/04/04 00:43:38;;;;;;;2.33;2.13;;;2.60;99.90;;;;;;4993649;28;20247;-67
2022/04/04 00:46:04;;;;;;;3.00;2.57;;;2.60;99.90;;;;;;4995871;28;20421;-68
2022/04/04 00:48:29;;;;;;;3.47;2.20;;;2.70;99.90;;;;;;4995917;28;20463;-67
2022/04/04 00:50:55;;;;;;;1.77;1.67;;;2.70;99.90;;;;;;4992381;28;20173;-67
2022/04/04 00:53:21;;;;;;;2.93;2.53;;;2.70;99.90;;;;;;4992208;28;20650;-67
2022/04/04 00:55:47;;;;;;;5.77;2.63;;;2.60;99.90;;;;;;4992018;28;20542;-66
2022/04/04 00:58:14;;;;;;;2.27;2.17;;;2.60;99.90;;;;;;4992173;28;20211;-67
2022/04/04 01:00:41;;;;;;;2.23;2.03;;;2.60;99.90;;;;;;4992257;28;20282;-67
2022/04/04 01:03:06;;;;;;;2.33;2.07;;;2.60;99.90;;;;;;4992466;28;20452;-67
2022/04/04 01:05:32;;;;;;;2.53;1.83;;;2.60;99.90;;;;;;4992118;28;20455;-67
2022/04/04 01:07:58;;;;;;;4.07;2.80;;;2.60;99.90;;;;;;4992395;28;20591;-67
2022/04/04 01:10:23;;;;;;;2.43;2.23;;;2.70;99.90;;;;;;4992065;28;20168;-67
2022/04/04 01:12:51;;;;;;;4.93;3.23;;;2.70;99.90;;;;;;4991898;28;20179;-66
2022/04/04 01:15:16;;;;;;;2.00;1.80;;;2.70;99.90;;;;;;4991726;28;20183;-67
2022/04/04 01:17:42;;;;;;;4.23;2.87;;;2.60;99.90;;;;;;4991857;28;20495;-66
2022/04/04 01:20:08;;;;;;;3.20;2.67;;;2.60;99.90;;;;;;4991938;28;20211;-67
2022/04/04 01:22:33;;;;;;;2.10;1.90;;;2.60;99.90;;;;;;4991812;28;20200;-67
2022/04/04 01:24:59;;;;;;;1.53;1.43;;;2.60;99.90;;;;;;4990352;28;20530;-67
2022/04/04 01:27:25;;;;;;;2.30;1.90;;;2.60;99.90;;;;;;4991892;28;20203;-67
2022/04/04 01:29:50;;;;;;;3.10;2.80;;;2.50;99.90;;;;;;4991809;28;20543;-67
2022/04/04 01:32:15;;;;;;;2.00;1.80;;;2.50;99.90;;;;;;4991734;28;20173;-68
2022/04/04 01:34:41;;;;;;;2.47;2.27;;;2.50;99.90;;;;;;4991670;28;20582;-68
2022/04/04 01:37:07;;;;;;;3.53;3.17;;;2.50;99.90;;;;;;4991459;28;20208;-66
2022/04/04 01:39:32;;;;;;;3.67;2.50;;;2.40;99.90;;;;;;4991607;28;20647;-67
2022/04/04 01:41:58;;;;;;;2.67;2.20;;;2.40;99.90;;;;;;4990018;28;20247;-67
2022/04/04 01:44:23;;;;;;;2.87;2.40;;;2.40;99.90;;;;;;4991467;28;20251;-67
2022/04/04 01:46:49;;;;;;;2.73;2.13;;;2.40;99.90;;;;;;4991483;28;20584;-68
2022/04/04 01:49:14;;;;;;;1.67;1.47;;;2.40;99.90;;;;;;4991611;28;20213;-67
2022/04/04 01:51:40;;;;;;;2.63;2.43;;;2.30;99.90;;;;;;4991523;28;20194;-67
2022/04/04 01:54:06;;;;;;;2.67;2.47;;;2.40;99.90;;;;;;4991206;28;20173;-66
2022/04/04 01:56:33;;;;;;;4.20;2.93;;;2.30;99.90;;;;;;4992657;28;20613;-66
2022/04/04 01:58:59;;;;;;;3.60;2.33;;;2.30;99.90;;;;;;4995090;28;20786;-67
2022/04/04 02:01:25;;;;;;;2.50;2.30;;;2.30;99.90;;;;;;4993825;28;20998;-66
2022/04/04 02:03:53;;;;;;;3.47;3.27;;;2.20;99.90;;;;;;4994987;28;20509;-66
2022/04/04 02:06:18;;;;;;;2.73;2.53;;;2.20;99.90;;;;;;4993664;28;20942;-67
2022/04/04 02:08:45;;;;;;;2.77;2.43;;;2.20;99.90;;;;;;4995018;28;21400;-67
2022/04/04 02:11:11;;;;;;;3.13;2.90;;;2.20;99.90;;;;;;4995263;28;20177;-67
2022/04/04 02:13:37;;;;;;;3.30;2.20;;;2.20;99.90;;;;;;4995001;28;20427;-68
2022/04/04 02:16:03;;;;;;;7.30;4.30;;;2.20;99.90;;;;;;4994852;28;20424;-67
2022/04/04 02:18:30;;;;;;;7.37;3.60;;;2.20;99.90;;;;;;4994748;28;20176;-67
2022/04/04 02:20:55;;;;;;;4.40;2.70;;;2.20;99.90;;;;;;4994825;28;20407;-68
2022/04/04 02:23:22;;;;;;;2.27;2.17;;;2.20;99.90;;;;;;4994607;28;20444;-68
2022/04/04 02:25:49;;;;;;;3.83;1.83;;;2.20;99.90;;;;;;4994630;28;20189;-67
2022/04/04 02:28:15;;;;;;;4.00;3.70;;;2.20;99.90;;;;;;4994879;28;20412;-67
2022/04/04 02:30:42;;;;;;;3.60;3.30;;;2.30;99.90;;;;;;4994465;28;20547;-67
2022/04/04 02:33:08;;;;;;;3.27;2.37;;;2.30;99.90;;;;;;4994531;28;20942;-68
2022/04/04 02:35:33;;;;;;;2.57;2.37;;;2.30;99.90;;;;;;4994225;28;20929;-68
2022/04/04 02:38:00;;;;;;;2.23;2.03;;;2.20;99.90;;;;;;4994763;28;20416;-67
2022/04/04 02:40:25;;;;;;;3.00;2.80;;;2.20;99.90;;;;;;4994477;28;20211;-67
2022/04/04 02:42:51;;;;;;;2.50;2.33;;;2.20;99.90;;;;;;4994316;28;20890;-67
2022/04/04 02:45:17;;;;;;;3.73;2.30;;;2.20;99.90;;;;;;4994506;28;20531;-67
2022/04/04 02:47:43;;;;;;;3.00;2.80;;;2.20;99.90;;;;;;4994535;28;20411;-67
2022/04/04 02:50:09;;;;;;;2.80;2.53;;;2.10;99.90;;;;;;4994481;28;20192;-66
2022/04/04 02:52:34;;;;;;;2.33;2.13;;;2.20;99.90;;;;;;4994280;28;20173;-66
2022/04/04 02:56:28;;;;;;;21.83;4.23;;;2.20;99.90;;;;;;4993115;28;20470;-67
2022/04/04 02:57:49;;;;;;;1.90;1.80;;;2.20;99.90;;;;;;4994285;28;20189;-66
2022/04/04 03:00:19;;;;;;;3.40;2.73;;;2.20;99.90;;;;;;4994479;28;20436;-65
2022/04/04 03:02:48;;;;;;;3.13;2.47;;;2.10;99.90;;;;;;4993898;28;20868;-66
2022/04/04 03:05:13;;;;;;;2.70;2.30;;;2.20;99.90;;;;;;4994001;28;20416;-66
2022/04/04 03:07:39;;;;;;;4.53;2.93;;;2.20;99.90;;;;;;4993911;28;20470;-66
2022/04/04 03:10:05;;;;;;;3.90;3.07;;;2.10;99.90;;;;;;4994200;28;20208;-67
2022/04/04 03:12:31;;;;;;;4.57;2.53;;;2.10;99.90;;;;;;4993956;28;20176;-67
2022/04/04 03:14:57;;;;;;;8.43;2.70;;;2.20;99.90;;;;;;4993845;28;20416;-68
2022/04/04 03:17:23;;;;;;;3.47;3.17;;;2.20;99.90;;;;;;4993613;28;20486;-67
2022/04/04 03:19:48;;;;;;;2.40;2.23;;;2.20;99.90;;;;;;4993658;28;20424;-67
2022/04/04 03:22:14;;;;;;;5.40;3.73;;;2.20;99.90;;;;;;4993810;28;20567;-66
2022/04/04 03:24:40;;;;;;;2.90;2.70;;;2.20;99.90;;;;;;4993551;28;20200;-67
2022/04/04 03:27:06;;;;;;;2.67;2.47;;;2.20;99.90;;;;;;4992078;28;20968;-66
2022/04/04 03:29:31;;;;;;;2.63;2.03;;;2.20;99.90;;;;;;4993599;28;20490;-67
2022/04/04 03:31:58;;;;;;;3.13;2.83;;;2.20;99.90;;;;;;4993409;28;20408;-67
2022/04/04 03:34:24;;;;;;;8.23;3.53;;;2.20;99.90;;;;;;4993494;28;20169;-67
2022/04/04 03:36:50;;;;;;;5.97;3.10;;;2.20;99.90;;;;;;4993215;28;20443;-67
2022/04/04 03:39:17;;;;;;;2.07;1.97;;;2.20;99.90;;;;;;4993600;28;20714;-66
2022/04/04 03:41:45;;;;;;;1.90;1.80;;;2.20;99.90;;;;;;4993286;28;20173;-67
2022/04/04 03:44:11;;;;;;;2.60;2.40;;;2.20;99.90;;;;;;4993331;28;20994;-66
2022/04/04 03:46:37;;;;;;;3.90;3.40;;;2.20;99.90;;;;;;4992938;28;20862;-66
2022/04/04 03:49:03;;;;;;;2.53;2.27;;;2.20;99.90;;;;;;4993432;28;20408;-66
2022/04/04 03:51:29;;;;;;;4.00;3.70;;;2.20;99.90;;;;;;4993218;28;20435;-66
2022/04/04 03:53:54;;;;;;;3.37;3.17;;;2.10;99.90;;;;;;4993174;28;20825;-66
2022/04/04 03:56:20;;;;;;;2.73;2.40;;;2.10;99.90;;;;;;4993081;28;20216;-67
2022/04/04 03:58:46;;;;;;;2.43;2.23;;;2.20;99.90;;;;;;4993234;28;20177;-66
2022/04/04 04:01:12;;;;;;;3.97;2.47;;;2.10;99.90;;;;;;4993166;28;20643;-66
2022/04/04 04:03:38;;;;;;;2.40;2.20;;;2.10;99.90;;;;;;4993097;28;20452;-66
2022/04/04 04:06:12;;;;;;;1.93;1.83;;;2.10;99.90;;;;;;4993482;28;20231;-66
2022/04/04 04:08:41;;;;;;;3.73;2.67;;;2.10;99.90;;;;;;4993384;28;20183;-66
2022/04/04 04:11:06;;;;;;;1.57;1.33;;;2.10;99.90;;;;;;4993406;28;20408;-66
2022/04/04 04:13:32;;;;;;;4.43;4.03;;;2.10;99.90;;;;;;4993452;28;20411;-67
2022/04/04 04:15:58;;;;;;;2.87;2.50;;;2.10;99.90;;;;;;4993473;28;20543;-67
2022/04/04 04:18:24;;;;;;;2.43;2.03;;;2.10;99.90;;;;;;4994360;28;20604;-67
2022/04/04 04:20:50;;;;;;;2.70;2.50;;;2.10;99.90;;;;;;4993748;28;20490;-66
2022/04/04 04:23:16;;;;;;;2.70;2.50;;;2.10;99.90;;;;;;4996113;28;20196;-68
2022/04/04 04:25:42;;;;;;;1.70;1.60;;;2.20;99.90;;;;;;4995642;28;20452;-68
2022/04/04 04:28:09;;;;;;;5.50;2.90;;;2.20;99.90;;;;;;4995030;28;20794;-67
2022/04/04 04:30:35;;;;;;;2.77;2.57;;;2.20;99.90;;;;;;4992214;28;20272;-66
2022/04/04 04:33:02;;;;;;;3.20;2.73;;;2.20;99.90;;;;;;4992539;28;20416;-66
2022/04/04 04:35:28;;;;;;;2.40;2.20;;;2.20;99.90;;;;;;4992006;28;20958;-68
2022/04/04 04:37:54;;;;;;;2.17;2.00;;;2.20;99.90;;;;;;5013358;23;20570;-68
2022/04/04 04:40:20;;;;;;;2.93;2.70;;;2.10;99.90;;;;;;4991017;28;20590;-68
2022/04/04 04:42:48;;;;;;;3.90;3.10;;;2.10;99.90;;;;;;4991986;28;20495;-68
2022/04/04 04:45:14;;;;;;;2.50;2.30;;;2.10;99.90;;;;;;4992417;28;20400;-69
2022/04/04 04:47:40;;;;;;;2.03;1.93;;;2.10;99.90;;;;;;4992356;28;20427;-69
2022/04/04 04:50:07;;;;;;;2.83;2.60;;;2.10;99.90;;;;;;4992224;28;20412;-68
2022/04/04 04:52:33;;;;;;;3.40;3.10;;;2.10;99.90;;;;;;4991990;28;20458;-68
2022/04/04 04:54:59;;;;;;;3.10;2.37;;;2.20;99.90;;;;;;4991979;28;20499;-68
2022/04/04 04:57:25;;;;;;;3.37;3.10;;;2.20;99.90;;;;;;4991945;28;20802;-68
2022/04/04 04:59:50;;;;;;;3.40;2.70;;;2.20;99.90;;;;;;4991973;28;20420;-68
2022/04/04 05:02:16;;;;;;;3.20;2.37;;;2.30;99.90;;;;;;4992227;28;20219;-68
2022/04/04 05:04:41;;;;;;;2.13;2.00;;;2.30;99.90;;;;;;4991906;28;20766;-68
2022/04/04 05:07:08;;;;;;;3.10;2.80;;;2.30;99.90;;;;;;4992020;28;20193;-68
2022/04/04 05:09:34;;;;;;;4.57;2.40;;;2.40;99.90;;;;;;4991873;28;20169;-68
2022/04/04 05:12:00;;;;;;;3.03;2.60;;;2.40;99.90;;;;;;4991773;28;20420;-68
2022/04/04 05:14:25;;;;;;;2.40;2.20;;;2.40;99.90;;;;;;4991756;28;20490;-69
2022/04/04 05:16:53;;;;;;;2.80;2.50;;;2.50;99.90;;;;;;4992060;28;20583;-68
2022/04/04 05:19:19;;;;;;;2.03;1.83;;;2.50;99.90;;;;;;4991979;28;20296;-69
2022/04/04 05:21:46;;;;;;;2.63;2.43;;;2.60;99.90;;;;;;4990429;28;20499;-68
2022/04/04 05:24:12;;;;;;;3.53;3.23;;;2.70;99.90;;;;;;4990387;28;20447;-68
2022/04/04 05:26:40;;;;;;;4.13;3.80;;;2.80;99.90;;;;;;4991344;28;20515;-68
2022/04/04 05:29:06;;;;;;;3.27;2.97;;;2.80;99.90;;;;;;4992099;28;20184;-69
2022/04/04 05:31:32;;;;;;;2.93;2.73;;;3.00;99.90;;;;;;4993093;28;20467;-69
2022/04/04 05:33:59;;;;;;;3.40;3.10;;;3.00;99.90;;;;;;4995935;28;20853;-68
2022/04/04 05:36:27;;;;;;;3.23;3.03;;;3.20;99.90;;;;;;4996185;28;20432;-69
2022/04/04 05:38:52;;;;;;;3.47;2.30;;;3.20;99.90;;;;;;4994427;28;20936;-69
2022/04/04 05:41:18;;;;;;;3.97;3.67;;;3.40;99.90;;;;;;4995931;28;20408;-68
2022/04/04 05:43:44;;;;;;;2.63;2.43;;;3.50;99.90;;;;;;4996237;28;20208;-68
2022/04/04 05:46:11;;;;;;;2.70;2.50;;;3.50;99.90;;;;;;4997865;28;20526;-68
2022/04/04 05:48:37;;;;;;;3.83;2.97;;;3.60;99.90;;;;;;4995776;28;21005;-69
2022/04/04 05:51:03;;;;;;;2.77;2.50;;;3.60;99.90;;;;;;4996169;28;20486;-68
2022/04/04 05:53:29;;;;;;;4.43;3.17;;;3.70;99.90;;;;;;4995867;28;20411;-68
2022/04/04 05:55:54;;;;;;;2.13;2.03;;;3.60;99.90;;;;;;4995314;28;20540;-68
2022/04/04 05:58:20;;;;;;;3.50;3.00;;;3.80;99.90;;;;;;4995254;28;20609;-69
2022/04/04 06:00:45;;;;;;;3.27;2.37;;;3.80;99.90;;;;;;4995357;28;20223;-69
2022/04/04 06:03:10;;;;;;;2.80;2.60;;;3.80;99.90;;;;;;4995738;28;20185;-68
2022/04/04 06:05:36;;;;;;;3.83;2.80;;;4.00;99.90;;;;;;4995102;28;20627;-68
2022/04/04 06:08:01;;;;;;;2.80;2.60;;;3.80;99.90;;;;;;4994996;28;20631;-67
2022/04/04 06:10:27;;;;;;;2.80;2.60;;;4.00;99.90;;;;;;4995488;28;20177;-68
2022/04/04 06:12:53;;;;;;;2.80;2.53;;;4.10;99.90;;;;;;4995451;28;20232;-69
2022/04/04 06:15:19;;;;;;;1.70;1.60;;;4.00;99.90;;;;;;4993801;28;20169;-68
2022/04/04 06:17:44;;;;;;;3.47;2.40;;;4.10;99.90;;;;;;4993742;28;20583;-69
2022/04/04 06:20:10;;;;;;;3.57;2.97;;;4.30;99.90;;;;;;4995126;28;20252;-70
2022/04/04 06:22:37;;;;;;;3.50;2.90;;;4.40;99.90;;;;;;4995007;28;20188;-69
2022/04/04 06:25:04;;;;;;;3.83;2.60;;;4.40;99.90;;;;;;4995195;28;20458;-68
2022/04/04 06:27:30;;;;;;;5.40;3.50;;;4.50;99.90;;;;;;4995076;28;20510;-69
2022/04/04 06:29:56;;;;;;;5.60;3.67;;;4.60;99.90;;;;;;4995127;28;20894;-69
2022/04/04 06:32:24;;;;;;;3.70;3.40;;;4.70;99.90;;;;;;4995232;28;20412;-69
2022/04/04 06:34:50;;;;;;;3.97;3.30;;;4.90;99.90;;;;;;4994219;28;20922;-70
2022/04/04 06:37:16;;;;;;;5.20;3.63;;;4.90;99.90;;;;;;4995134;28;20448;-68
2022/04/04 06:39:42;;;;;;;3.20;2.90;;;4.90;99.90;;;;;;4995375;28;20548;-70
2022/04/04 06:42:07;;;;;;;3.47;3.17;;;5.10;99.90;;;;;;4995033;28;20415;-69
2022/04/04 06:44:33;;;;;;;4.10;3.70;;;5.00;99.90;;;;;;4995984;28;20197;-70
2022/04/04 06:46:59;;;;;;;4.40;4.03;;;4.90;99.90;;;;;;4997655;28;20219;-68
2022/04/04 06:49:25;;;;;;;4.10;3.80;;;5.30;99.90;;;;;;4996142;28;20161;-69
2022/04/04 06:51:51;;;;;;;5.27;3.70;;;5.20;99.90;;;;;;4994929;28;20404;-68
2022/04/04 06:54:18;;;;;;;3.87;3.33;;;5.10;99.90;;;;;;4995071;28;20516;-69
2022/04/04 06:56:46;;;;;;;3.30;2.73;;;5.20;99.90;;;;;;4994708;28;20479;-68
2022/04/04 06:59:13;;;;;;;6.03;3.03;;;5.10;99.90;;;;;;4994728;28;20481;-68
2022/04/04 07:01:38;;;;;;;4.03;3.73;;;5.20;99.90;;;;;;4994414;28;20400;-68
2022/04/04 07:04:04;;;;;;;4.27;3.40;;;5.10;99.90;;;;;;4994556;28;20827;-69
2022/04/04 07:06:29;;;;;;;4.17;3.43;;;5.10;99.90;;;;;;4994072;28;20699;-69
2022/04/04 07:08:55;;;;;;;5.37;4.17;;;5.10;99.90;;;;;;4994391;28;20161;-68
2022/04/04 07:11:20;;;;;;;6.83;4.80;;;5.10;99.90;;;;;;4994127;28;20248;-68
2022/04/04 07:13:49;;;;;;;4.60;4.20;;;5.10;99.90;;;;;;4994100;28;20171;-68
2022/04/04 07:16:16;;;;;;;6.70;6.20;;;5.30;99.90;;;;;;4994101;28;20165;-68
2022/04/04 07:18:42;;;;;;;7.60;5.30;;;5.40;99.90;;;;;;4992890;28;20470;-68
2022/04/04 07:21:07;;;;;;;4.20;3.90;;;5.30;99.90;;;;;;4993933;28;20771;-68
2022/04/04 07:23:33;;;;;;;5.03;3.40;;;5.40;99.90;;;;;;4994175;28;20223;-68
2022/04/04 07:25:58;;;;;;;4.90;4.23;;;5.40;99.90;;;;;;4994034;28;20244;-69
2022/04/04 07:28:24;;;;;;;4.13;3.73;;;5.40;99.90;;;;;;4994147;28;20239;-69
2022/04/04 07:30:50;;;;;;;6.40;4.13;;;5.50;99.90;;;;;;4994702;28;20165;-68
2022/04/04 07:33:17;;;;;;;5.03;3.73;;;5.40;99.90;;;;;;4996180;28;20210;-68
2022/04/04 07:35:43;;;;;;;5.63;3.87;;;5.30;99.90;;;;;;4994527;28;20400;-70
2022/04/04 07:38:09;;;;;;;6.00;4.60;;;5.30;99.90;;;;;;4993648;28;20467;-69
2022/04/04 07:40:35;;;;;;;4.83;4.43;;;5.30;99.90;;;;;;4993965;28;20416;-69
2022/04/04 07:43:00;;;;;;;4.90;4.20;;;5.50;99.90;;;;;;4994236;28;20924;-69
2022/04/04 07:45:30;;;;;;;8.43;5.33;;;5.50;99.90;;;;;;4993476;28;20171;-69
2022/04/04 07:47:57;;;;;;;4.13;3.70;;;5.60;99.90;;;;;;4993354;28;20197;-68
2022/04/04 07:50:23;;;;;;;4.30;4.00;;;5.80;99.90;;;;;;4993145;28;20409;-68
2022/04/04 07:52:49;;;;;;;5.80;5.00;;;6.00;99.90;;;;;;4992997;28;20396;-68
2022/04/04 07:55:15;;;;;;;6.13;5.13;;;6.00;99.90;;;;;;4991048;28;20173;-68
2022/04/04 07:57:41;;;;;;;4.90;4.40;;;6.10;99.90;;;;;;4993183;28;20419;-69
2022/04/04 08:00:09;;;;;;;4.77;3.90;;;6.30;99.90;;;;;;4993170;28;20511;-68
2022/04/04 08:02:35;;;;;;;5.00;4.50;;;6.30;99.90;;;;;;4993414;28;20408;-68
2022/04/04 08:05:01;;;;;;;7.13;4.10;;;6.10;99.90;;;;;;4992977;28;20899;-67
2022/04/04 08:07:26;;;;;;;3.93;3.60;;;6.20;99.90;;;;;;4993184;28;20522;-69
2022/04/04 08:09:52;;;;;;;4.80;4.33;;;6.30;99.90;;;;;;4993190;28;20484;-68
2022/04/04 08:12:17;;;;;;;4.00;3.43;;;6.40;99.90;;;;;;4993376;28;20165;-67
2022/04/04 08:14:44;;;;;;;4.70;4.07;;;6.40;99.90;;;;;;4993349;28;20560;-68
2022/04/04 08:17:10;;;;;;;3.77;3.17;;;6.30;99.90;;;;;;4993113;28;20213;-70
2022/04/04 08:19:36;;;;;;;5.00;4.53;;;6.60;99.90;;;;;;4993300;28;20455;-68
2022/04/04 08:22:02;;;;;;;5.77;4.90;;;6.60;99.90;;;;;;4993279;28;20181;-68
2022/04/04 08:24:28;;;;;;;6.33;4.60;;;6.50;99.90;;;;;;4993873;28;20593;-69
2022/04/04 08:26:53;;;;;;;5.27;4.77;;;6.70;99.90;;;;;;4993789;28;20432;-68
2022/04/04 08:29:19;;;;;;;4.57;4.10;;;7.00;99.90;;;;;;4993961;28;20165;-70
2022/04/04 08:31:44;;;;;;;8.53;3.63;;;7.30;99.90;;;;;;4993867;28;20177;-69
2022/04/04 08:34:10;;;;;;;7.37;4.33;;;7.00;99.90;;;;;;4993702;28;20204;-68
2022/04/04 08:36:36;;;;;;;7.90;4.23;;;7.10;99.90;;;;;;4994187;28;20574;-69
2022/04/04 08:39:02;;;;;;;4.33;3.70;;;7.20;99.90;;;;;;4994323;28;20173;-69
2022/04/04 08:41:32;;;;;;;4.20;3.80;;;7.00;99.90;;;;;;4994289;28;20224;-69
2022/04/04 08:44:00;;;;;;;4.00;3.37;;;6.90;99.90;;;;;;4993930;28;20483;-69
2022/04/04 08:46:26;;;;;;;3.97;3.57;;;7.10;99.90;;;;;;4993596;28;20511;-69
2022/04/04 08:48:55;;;;;;;4.07;2.87;;;6.80;99.90;;;;;;4992978;28;20503;-70
2022/04/04 08:51:21;;;;;;;5.80;4.03;;;7.10;99.90;;;;;;4992755;28;20173;-68
2022/04/04 08:53:47;;;;;;;4.40;3.50;;;7.00;99.90;;;;;;4992910;28;20419;-69
2022/04/04 08:56:12;;;;;;;5.33;3.73;;;7.40;99.90;;;;;;4993003;28;20416;-70
2022/04/04 08:58:38;;;;;;;3.33;3.00;;;7.10;99.90;;;;;;4993114;28;20224;-69
2022/04/04 09:01:04;;;;;;;3.93;3.63;;;7.20;99.90;;;;;;4992653;28;20177;-70
2022/04/04 09:03:32;;;;;;;4.40;3.57;;;7.30;99.90;;;;;;4992394;28;20259;-69
2022/04/04 09:05:59;;;;;;;4.50;3.13;;;7.50;99.90;;;;;;4992577;28;20783;-69
2022/04/04 09:08:28;;;;;;;4.13;3.20;;;7.50;99.90;;;;;;4992684;28;20467;-69
2022/04/04 09:10:56;;;;;;;4.10;3.07;;;7.80;99.90;;;;;;4993002;28;20411;-71
2022/04/04 09:13:23;;;;;;;5.20;3.30;;;7.60;99.90;;;;;;4993277;28;20520;-70
2022/04/04 09:16:02;;;;;;;4.97;3.10;;;7.30;99.90;;;;;;4992927;28;20416;-72
2022/04/04 09:18:47;;;;;;;4.90;3.67;;;7.40;99.90;;;;;;4993188;28;20485;-69
2022/04/04 09:21:19;;;;;;;5.10;3.23;;;7.40;99.90;;;;;;4994240;28;20416;-68
2022/04/04 09:23:50;;;;;;;3.40;2.83;;;7.50;99.90;;;;;;4992369;28;20455;-70
2022/04/04 09:26:41;;;;;;;3.83;3.50;;;7.60;99.90;;;;;;4991853;28;20907;-70
2022/04/04 09:29:13;;;;;;;4.10;3.80;;;7.50;99.90;;;;;;4992129;28;20404;-69
2022/04/04 09:31:59;;;;;;;3.90;3.37;;;7.50;99.90;;;;;;4991818;28;20408;-68
2022/04/04 09:34:26;;;;;;;3.83;2.73;;;7.70;99.90;;;;;;4991627;28;20448;-68
2022/04/04 09:36:52;;;;;;;3.40;3.10;;;7.60;99.90;;;;;;4991760;28;20458;-67
2022/04/04 09:39:18;;;;;;;4.60;3.40;;;7.90;99.90;;;;;;4992031;28;20404;-68
2022/04/04 09:41:43;;;;;;;4.43;3.07;;;8.10;99.90;;;;;;4992072;28;20442;-68
2022/04/04 09:44:11;;;;;;;4.80;3.30;;;8.10;99.90;;;;;;4991629;28;20201;-68
2022/04/04 09:46:42;;;;;;;4.33;3.07;;;8.40;99.90;;;;;;4991626;28;20177;-67
2022/04/04 09:49:17;;;;;;;4.00;3.10;;;8.20;99.90;;;;;;4991786;28;20471;-68
2022/04/04 09:51:46;;;;;;;4.23;3.70;;;7.80;99.90;;;;;;4991853;28;20408;-69
2022/04/04 09:54:14;;;;;;;4.80;3.80;;;8.00;99.90;;;;;;4991833;28;20500;-67
2022/04/04 09:56:40;;;;;;;5.37;3.60;;;8.70;99.90;;;;;;4991704;28;21009;-68
2022/04/04 09:59:06;;;;;;;13.43;4.00;;;8.90;99.50;;;;;;4991920;28;20416;-68
2022/04/04 10:01:33;;;;;;;6.07;3.20;;;9.00;99.90;;;;;;4991685;28;20451;-69
2022/04/04 10:04:00;;;;;;;6.23;4.20;;;9.20;98.50;;;;;;4992091;28;20487;-68
2022/04/04 10:06:28;;;;;;;4.23;3.70;;;8.80;98.20;;;;;;4991762;28;20427;-69
2022/04/04 10:08:55;;;;;;;6.63;4.73;;;8.70;99.10;;;;;;4991789;28;20420;-69
2022/04/04 10:11:22;;;;;;;3.43;3.07;;;8.70;98.80;;;;;;4992180;28;20419;-69
2022/04/04 10:13:49;;;;;;;4.53;3.80;;;8.80;98.20;;;;;;4992039;28;20926;-69
2022/04/04 10:16:16;;;;;;;3.10;2.83;;;8.60;97.90;;;;;;4991957;28;20412;-69
2022/04/04 10:18:45;;;;;;;4.10;3.37;;;8.80;98.20;;;;;;4995151;28;20451;-68
2022/04/04 10:21:11;;;;;;;3.43;3.00;;;9.20;98.50;;;;;;4995392;28;20989;-68
2022/04/04 10:23:39;;;;;;;3.73;3.43;;;8.80;97.80;;;;;;4995389;28;20459;-69
2022/04/04 10:26:07;;;;;;;5.60;3.93;;;8.60;97.40;;;;;;4995061;28;20409;-68
2022/04/04 10:28:35;;;;;;;7.30;4.17;;;8.60;97.60;;;;;;4995078;28;20424;-67
2022/04/04 10:31:17;;;;;;;3.97;3.57;;;8.40;97.10;;;;;;4995251;28;20412;-68
2022/04/04 10:33:43;;;;;;;3.80;3.13;;;8.30;97.30;;;;;;4995335;28;20404;-68
2022/04/04 10:36:11;;;;;;;2.80;2.60;;;8.20;97.50;;;;;;4995293;28;20906;-68
2022/04/04 10:38:49;;;;;;;3.83;3.27;;;8.10;97.70;;;;;;5033972;23;20919;-71
2022/04/04 10:41:18;;;;;;;3.43;2.60;;;8.30;97.80;;;;;;5007769;28;20901;-70
2022/04/04 10:43:52;;;;;;;4.07;3.33;;;8.40;98.00;;;;;;5014008;28;20458;-70
2022/04/04 10:46:19;;;;;;;4.17;3.77;;;8.30;97.70;;;;;;5014057;28;20439;-69
2022/04/04 10:48:54;;;;;;;7.30;3.60;;;8.40;97.60;;;;;;5013758;28;20424;-69
2022/04/04 10:51:31;;;;;;;4.70;4.30;;;8.60;97.40;;;;;;5013810;28;20780;-69
2022/04/04 10:54:07;;;;;;;2.80;2.60;;;8.70;97.00;;;;;;5014029;28;20415;-71
2022/04/04 10:56:40;;;;;;;2.93;2.63;;;8.70;96.90;;;;;;5013696;28;20499;-70
2022/04/04 10:59:15;;;;;;;5.87;3.80;;;8.60;96.90;;;;;;5013893;28;20411;-70
2022/04/04 11:01:43;;;;;;;7.23;3.87;;;8.40;96.70;;;;;;5013623;28;20407;-69
2022/04/04 11:04:22;;;;;;;3.87;3.10;;;8.50;96.50;;;;;;5013371;28;20500;-69
2022/04/04 11:09:46;;;;;;;5.97;2.80;;;8.60;95.90;;;;;;5013766;28;20449;-70
2022/04/04 11:12:13;;;;;;;4.03;3.07;;;8.40;95.60;;;;;;5013438;28;20730;-70
2022/04/04 11:14:41;;;;;;;3.90;3.30;;;8.50;95.10;;;;;;5013675;28;20422;-70
2022/04/04 11:17:30;;;;;;;4.17;2.83;;;8.60;94.70;;;;;;5013487;28;20436;-70
2022/04/04 11:20:38;;;;;;;3.93;2.97;;;8.40;94.70;;;;;;5013525;28;20404;-70
2022/04/04 11:23:10;;;;;;;3.93;3.20;;;8.40;95.00;;;;;;5013186;28;20450;-71
2022/04/04 11:25:48;;;;;;;3.73;3.03;;;8.50;94.90;;;;;;5013530;28;20848;-70
2022/04/04 11:28:15;;;;;;;3.80;2.93;;;8.60;94.80;;;;;;5012553;28;20419;-70
2022/04/04 11:30:41;;;;;;;3.50;3.10;;;8.40;94.30;;;;;;5012748;28;20434;-72
2022/04/04 11:33:11;;;;;;;3.60;2.63;;;8.30;94.40;;;;;;5013093;28;20405;-71
2022/04/04 11:35:36;;;;;;;3.43;3.07;;;8.50;94.80;;;;;;5013214;28;20174;-70
2022/04/04 11:38:11;;;;;;;2.93;2.60;;;8.10;94.60;;;;;;5012776;28;20792;-70
2022/04/04 11:40:39;;;;;;;5.70;2.60;;;8.20;95.00;;;;;;5013225;28;20644;-70
2022/04/04 11:43:10;;;;;;;2.50;2.30;;;8.70;95.10;;;;;;5013181;28;20427;-69
2022/04/04 11:45:37;;;;;;;3.67;2.60;;;8.60;94.80;;;;;;5012810;28;20905;-71
2022/04/04 11:48:26;;;;;;;2.33;1.90;;;8.70;94.80;;;;;;5013211;28;20460;-70
2022/04/04 11:50:56;;;;;;;3.63;2.73;;;8.60;94.80;;;;;;5013230;28;20404;-70
2022/04/04 11:53:25;;;;;;;3.33;2.67;;;8.30;96.10;;;;;;5012734;28;20415;-70
2022/04/04 11:55:52;;;;;;;3.50;2.37;;;8.10;96.60;;;;;;5012971;28;20875;-70
2022/04/04 11:58:20;;;;;;;3.83;2.43;;;8.30;97.50;;;;;;5012552;28;20433;-70
2022/04/04 12:01:00;;;;;;;2.70;2.50;;;7.90;97.60;;;;;;5012617;28;20411;-70
2022/04/04 12:03:27;;;;;;;1.70;1.40;;;7.70;97.50;;;;;;5011673;28;20866;-70
2022/04/04 12:05:53;;;;;;;3.40;1.93;;;7.70;97.60;;;;;;5012853;28;20461;-70
2022/04/04 12:08:21;;;;;;;2.73;1.50;;;7.70;98.30;;;;;;5012363;28;20454;-70
2022/04/04 12:10:49;;;;;;;2.60;2.17;;;7.60;98.70;;;;;;5012499;28;20449;-70
2022/04/04 12:13:21;;;;;;;3.40;1.90;;;7.60;98.60;;;;;;5012627;28;20898;-70
2022/04/04 12:15:50;;;;;;;2.80;2.47;;;7.50;99.10;;;;;;5012300;28;20570;-69
2022/04/04 12:18:21;;;;;;;4.10;2.67;;;7.50;99.90;;;;;;5012414;28;20419;-70
2022/04/04 12:20:47;;;;;;;2.03;1.87;;;7.30;99.90;;;;;;5012965;28;20407;-70
2022/04/04 12:26:03;;;;;;;2.97;2.37;;;6.80;99.90;;;;;;5012431;28;20453;-70
2022/04/04 12:28:31;;;;;;;3.83;2.40;;;6.40;99.90;;;;;;5012267;28;20431;-68
2022/04/04 12:30:57;;;;;;;3.13;1.93;;;6.30;99.90;;;;;;5012186;28;20428;-70
2022/04/04 12:33:30;;;;;;;3.00;1.90;;;6.50;99.90;;;;;;5011976;28;20489;-69
2022/04/04 12:35:56;;;;;;;1.60;1.50;;;6.30;99.90;;;;;;5012283;28;20445;-69
2022/04/04 12:38:31;;;;;;;2.83;2.10;;;6.10;99.90;;;;;;5011803;28;20442;-69
2022/04/04 12:41:11;;;;;;;5.77;3.43;;;6.10;99.90;;;;;;5011546;28;20175;-69
2022/04/04 12:43:38;;;;;;;2.50;2.30;;;5.80;99.90;;;;;;5012219;28;20453;-71
2022/04/04 12:46:07;;;;;;;4.43;4.03;;;5.90;99.90;;;;;;5011634;28;20885;-70
2022/04/04 12:48:38;;;;;;;2.53;2.33;;;5.80;99.90;;;;;;5011912;28;20539;-69
2022/04/04 12:51:04;;;;;;;3.93;2.83;;;5.80;99.90;;;;;;5011533;28;20403;-70
2022/04/04 12:53:49;;;;;;;2.23;2.03;;;5.60;99.90;;;;;;5011501;28;20847;-69
2022/04/04 12:56:15;;;;;;;2.87;2.67;;;5.60;99.90;;;;;;5011559;28;20419;-70
2022/04/04 12:58:40;;;;;;;3.73;2.97;;;5.40;99.90;;;;;;5011469;28;20431;-71
2022/04/04 13:01:15;;;;;;;3.93;2.97;;;5.10;99.90;;;;;;5011541;28;20403;-69
2022/04/04 13:03:52;;;;;;;4.47;3.20;;;5.00;99.90;;;;;;5011395;28;20697;-69
2022/04/04 13:06:18;;;;;;;3.07;2.77;;;4.90;99.90;;;;;;5011666;28;20889;-70